Time;durP1;ratioP1;P1;durP2;ratioP2;P2;SDS_P1;SDS_P2;PMS_P1;PMS_P2;Temp;Humidity;BMP_temperature;BMP_pressure;BME280_temperature;BME280_humidity;BME280_pressure;Samples;Min_cycle;Max_cycle;Signal;HPM_P1;HPM_P2
2023/03/05 00:01:32;;;;;;;19.35;8.40;;;7.20;50.00;;;;;;2502761;52;21511;-69
2023/03/05 00:03:59;;;;;;;17.48;9.32;;;7.20;50.00;;;;;;2369414;53;21419;-69
2023/03/05 00:06:26;;;;;;;19.42;9.13;;;7.20;50.00;;;;;;2524798;52;21374;-69
2023/03/05 00:08:55;;;;;;;19.55;9.40;;;7.20;49.90;;;;;;2368376;53;20986;-70
2023/03/05 00:11:21;;;;;;;19.50;9.40;;;7.20;49.90;;;;;;2371178;53;21506;-70
2023/03/05 00:13:51;;;;;;;24.67;10.27;;;7.20;49.90;;;;;;2546647;52;21735;-69
2023/03/05 00:16:17;;;;;;;21.08;9.90;;;7.20;49.90;;;;;;2370992;53;21296;-69
2023/03/05 00:18:44;;;;;;;26.42;10.88;;;7.20;49.90;;;;;;2368989;53;20930;-70
2023/03/05 00:21:23;;;;;;;23.02;10.75;;;7.20;49.90;;;;;;2398936;52;20991;-70
2023/03/05 00:23:50;;;;;;;25.08;11.38;;;7.20;49.90;;;;;;2460035;52;21425;-69
2023/03/05 00:26:17;;;;;;;26.20;11.88;;;7.20;49.90;;;;;;2369908;53;20906;-69
2023/03/05 00:28:48;;;;;;;23.50;10.15;;;7.20;49.90;;;;;;2369200;53;20938;-70
2023/03/05 00:31:19;;;;;;;19.30;9.45;;;7.20;49.80;;;;;;2542707;52;21779;-70
2023/03/05 00:33:45;;;;;;;17.45;8.30;;;7.20;49.80;;;;;;2370603;53;21435;-70
2023/03/05 00:36:11;;;;;;;18.33;8.63;;;7.20;49.80;;;;;;2344622;53;20947;-70
2023/03/05 00:38:38;;;;;;;16.77;8.18;;;7.20;49.80;;;;;;2358159;53;21505;-70
2023/03/05 00:41:04;;;;;;;19.05;8.82;;;7.20;49.70;;;;;;2362673;53;21003;-70
2023/03/05 00:43:30;;;;;;;18.05;8.68;;;7.20;49.70;;;;;;2355800;53;20962;-70
2023/03/05 00:45:56;;;;;;;23.70;10.45;;;7.20;49.70;;;;;;2382853;52;21518;-70
2023/03/05 00:48:24;;;;;;;17.90;8.98;;;7.20;49.80;;;;;;2353245;53;20977;-70
2023/03/05 00:50:50;;;;;;;21.33;9.32;;;7.20;49.80;;;;;;2367873;53;21018;-70
2023/03/05 00:53:16;;;;;;;20.65;8.85;;;7.20;49.80;;;;;;2350305;53;20981;-70
2023/03/05 00:55:43;;;;;;;21.27;9.25;;;7.20;49.80;;;;;;2369131;53;21558;-70
2023/03/05 00:58:09;;;;;;;19.73;9.18;;;7.20;49.80;;;;;;2369464;53;21367;-70
2023/03/05 01:00:35;;;;;;;18.30;8.90;;;7.20;49.80;;;;;;2369885;53;21042;-69
2023/03/05 01:03:01;;;;;;;18.40;8.75;;;7.20;49.90;;;;;;2592822;52;21030;-69
2023/03/05 01:05:28;;;;;;;18.42;8.93;;;7.20;49.90;;;;;;2369965;53;20922;-70
2023/03/05 01:07:54;;;;;;;22.08;9.85;;;7.20;49.80;;;;;;2369452;53;20918;-70
2023/03/05 01:10:22;;;;;;;19.23;8.95;;;7.20;49.80;;;;;;2369462;53;20918;-70
2023/03/05 01:12:48;;;;;;;18.90;8.90;;;7.20;49.90;;;;;;2349816;53;21046;-69
2023/03/05 01:15:15;;;;;;;19.20;7.85;;;7.20;49.90;;;;;;2621720;52;20966;-70
2023/03/05 01:17:41;;;;;;;18.80;8.52;;;7.20;49.80;;;;;;2351921;53;21503;-69
2023/03/05 01:20:08;;;;;;;21.87;9.45;;;7.20;49.80;;;;;;2366968;53;20910;-70
2023/03/05 01:22:34;;;;;;;15.82;7.53;;;7.20;49.80;;;;;;2368585;53;20922;-70
2023/03/05 01:25:01;;;;;;;15.90;7.05;;;7.20;49.80;;;;;;2369356;53;20966;-69
2023/03/05 01:27:27;;;;;;;15.93;7.93;;;7.20;49.80;;;;;;2394261;53;21061;-69
2023/03/05 01:29:53;;;;;;;17.65;7.70;;;7.20;49.80;;;;;;2341669;53;20956;-70
2023/03/05 01:32:31;;;;;;;18.55;9.13;;;7.20;49.80;;;;;;2476443;52;21315;-70
2023/03/05 01:35:03;;;;;;;18.52;8.85;;;7.20;49.90;;;;;;2341393;53;20992;-69
2023/03/05 01:37:30;;;;;;;19.58;8.20;;;7.10;49.80;;;;;;2341136;53;21040;-70
2023/03/05 01:39:56;;;;;;;15.60;7.50;;;7.10;49.80;;;;;;2340508;53;20925;-69
2023/03/05 01:42:22;;;;;;;19.85;8.48;;;7.20;49.90;;;;;;2343777;53;20964;-70
2023/03/05 01:47:26;;;;;;;22.62;9.90;;;7.20;49.90;;;;;;2341060;53;20921;-69
2023/03/05 01:49:53;;;;;;;17.37;7.50;;;7.10;49.90;;;;;;2340856;53;20991;-70
2023/03/05 01:52:20;;;;;;;18.75;7.80;;;7.20;49.80;;;;;;2342402;53;20996;-69
2023/03/05 01:54:57;;;;;;;21.40;9.23;;;7.10;49.80;;;;;;2341068;53;21481;-70
2023/03/05 01:57:29;;;;;;;23.23;9.85;;;7.10;49.90;;;;;;2349443;53;20974;-69
2023/03/05 01:59:59;;;;;;;20.42;9.27;;;7.10;49.90;;;;;;2445060;53;21302;-69
2023/03/05 02:02:26;;;;;;;24.42;10.38;;;7.10;49.80;;;;;;2370875;53;20944;-69
2023/03/05 02:04:58;;;;;;;20.08;9.18;;;7.10;49.90;;;;;;2571501;52;21684;-70
2023/03/05 02:07:24;;;;;;;21.27;9.82;;;7.00;49.80;;;;;;2620516;52;21315;-69
2023/03/05 02:09:50;;;;;;;24.17;9.80;;;7.00;49.80;;;;;;2368951;53;20931;-70
2023/03/05 02:12:16;;;;;;;24.12;9.77;;;7.00;49.90;;;;;;2369970;53;21307;-69
2023/03/05 02:14:46;;;;;;;22.33;10.30;;;7.00;49.90;;;;;;2368716;53;21021;-70
2023/03/05 02:17:12;;;;;;;23.70;10.57;;;7.00;49.90;;;;;;2369161;53;20906;-70
2023/03/05 02:19:49;;;;;;;24.92;11.02;;;7.00;49.90;;;;;;2363709;53;20935;-70
2023/03/05 02:22:16;;;;;;;27.58;11.70;;;7.00;50.00;;;;;;2475894;52;21129;-69
2023/03/05 02:24:43;;;;;;;24.45;12.02;;;7.00;50.00;;;;;;2362524;53;21060;-70
2023/03/05 02:27:09;;;;;;;20.80;9.70;;;7.00;50.00;;;;;;2369122;53;20902;-69
2023/03/05 02:29:36;;;;;;;25.20;11.55;;;7.00;50.00;;;;;;2611295;52;21410;-70
2023/03/05 02:32:02;;;;;;;25.08;10.75;;;7.00;50.00;;;;;;2368941;53;21454;-69
2023/03/05 02:34:29;;;;;;;27.95;11.57;;;7.00;50.10;;;;;;2592540;52;21447;-70
2023/03/05 02:36:55;;;;;;;22.42;9.88;;;7.10;50.10;;;;;;2367695;53;21061;-70
2023/03/05 02:39:21;;;;;;;21.15;10.50;;;7.00;50.10;;;;;;2619201;52;21415;-70
2023/03/05 02:41:48;;;;;;;21.77;9.45;;;7.00;50.10;;;;;;2465059;52;21498;-70
2023/03/05 02:44:14;;;;;;;22.73;9.98;;;7.00;50.10;;;;;;2471908;52;21469;-70
2023/03/05 02:46:40;;;;;;;24.73;9.75;;;7.00;50.10;;;;;;2619843;52;21257;-70
2023/03/05 02:49:06;;;;;;;21.70;9.75;;;7.00;50.10;;;;;;2367494;53;20938;-70
2023/03/05 02:51:33;;;;;;;21.83;9.73;;;7.00;50.10;;;;;;2368190;53;21116;-70
2023/03/05 02:53:59;;;;;;;21.62;10.20;;;7.00;50.10;;;;;;2366340;53;20929;-70
2023/03/05 02:56:25;;;;;;;25.10;11.27;;;7.00;50.10;;;;;;2364002;53;20942;-70
2023/03/05 02:58:51;;;;;;;25.88;10.75;;;7.00;50.10;;;;;;2367840;53;20922;-69
2023/03/05 03:01:18;;;;;;;26.87;11.23;;;7.00;50.10;;;;;;2367823;53;20973;-70
2023/03/05 03:03:44;;;;;;;25.00;11.27;;;7.00;50.10;;;;;;2565985;52;21040;-70
2023/03/05 03:06:10;;;;;;;22.95;9.95;;;7.00;50.20;;;;;;2516703;52;21154;-70
2023/03/05 03:08:36;;;;;;;23.45;10.32;;;7.00;50.20;;;;;;2584194;52;20978;-69
2023/03/05 03:11:07;;;;;;;21.02;9.38;;;7.00;50.20;;;;;;2367079;53;20926;-70
2023/03/05 03:13:33;;;;;;;21.55;9.68;;;7.00;50.20;;;;;;2369695;53;20978;-70
2023/03/05 03:16:07;;;;;;;21.35;9.15;;;7.00;50.20;;;;;;2619276;52;20942;-69
2023/03/05 03:18:33;;;;;;;20.85;9.70;;;7.00;50.30;;;;;;2372275;53;20938;-69
2023/03/05 03:20:59;;;;;;;25.58;10.77;;;7.00;50.20;;;;;;2559099;52;20985;-69
2023/03/05 03:23:26;;;;;;;20.52;9.52;;;7.00;50.20;;;;;;2366494;53;20994;-70
2023/03/05 03:25:52;;;;;;;21.33;9.35;;;7.00;50.30;;;;;;2608906;52;20993;-70
2023/03/05 03:28:18;;;;;;;17.12;7.43;;;7.00;50.20;;;;;;2388805;52;21345;-70
2023/03/05 03:30:44;;;;;;;18.15;8.05;;;7.10;50.30;;;;;;2617678;52;21191;-70
2023/03/05 03:33:11;;;;;;;17.70;7.75;;;7.10;50.20;;;;;;2368162;53;21390;-70
2023/03/05 03:35:37;;;;;;;18.33;7.15;;;7.10;50.20;;;;;;2368943;53;21501;-70
2023/03/05 03:38:03;;;;;;;15.10;7.12;;;7.10;50.20;;;;;;2367989;53;21356;-70
2023/03/05 03:40:30;;;;;;;16.80;7.43;;;7.10;50.20;;;;;;2609991;52;20914;-70
2023/03/05 03:42:56;;;;;;;15.85;6.60;;;7.10;50.20;;;;;;2368829;53;20910;-70
2023/03/05 03:45:22;;;;;;;18.87;7.50;;;7.10;50.10;;;;;;2366368;53;21342;-69
2023/03/05 03:47:49;;;;;;;13.35;6.45;;;7.10;50.10;;;;;;2431108;53;21307;-69
2023/03/05 03:50:15;;;;;;;18.08;6.65;;;7.10;50.10;;;;;;2369710;53;21435;-69
2023/03/05 03:52:41;;;;;;;18.23;8.20;;;7.10;50.10;;;;;;2476673;52;21325;-70
2023/03/05 03:55:08;;;;;;;15.55;6.87;;;7.10;50.10;;;;;;2464456;52;20995;-69
2023/03/05 03:57:35;;;;;;;17.65;7.72;;;7.10;50.10;;;;;;2363515;53;20951;-69
2023/03/05 04:00:05;;;;;;;18.20;8.50;;;7.10;50.10;;;;;;2432723;52;21636;-69
2023/03/05 04:02:31;;;;;;;18.20;8.07;;;7.10;50.10;;;;;;2368381;53;21690;-69
2023/03/05 04:04:58;;;;;;;17.15;7.90;;;7.10;50.20;;;;;;2438970;52;20919;-69
2023/03/05 04:07:24;;;;;;;17.08;7.28;;;7.10;50.10;;;;;;2368858;53;21002;-70
2023/03/05 04:09:50;;;;;;;15.82;7.07;;;7.10;50.10;;;;;;2371305;53;20950;-69
2023/03/05 04:12:17;;;;;;;16.15;7.78;;;7.10;50.10;;;;;;2362069;53;21401;-70
2023/03/05 04:14:46;;;;;;;16.45;7.72;;;7.10;50.10;;;;;;2393755;52;20946;-70
2023/03/05 04:17:13;;;;;;;20.90;8.98;;;7.10;50.10;;;;;;2370967;53;20960;-69
2023/03/05 04:19:39;;;;;;;13.10;6.78;;;7.00;50.10;;;;;;2362189;53;21486;-70
2023/03/05 04:22:08;;;;;;;16.58;7.37;;;7.00;50.10;;;;;;2368598;53;21391;-69
2023/03/05 04:24:34;;;;;;;16.45;7.22;;;7.10;50.20;;;;;;2369158;53;21002;-69
2023/03/05 04:27:00;;;;;;;16.40;7.05;;;7.10;50.20;;;;;;2363747;53;20980;-69
2023/03/05 04:29:27;;;;;;;12.18;6.18;;;7.00;50.20;;;;;;2369503;53;20915;-69
2023/03/05 04:31:53;;;;;;;15.88;6.43;;;7.10;50.30;;;;;;2363877;53;21465;-69
2023/03/05 04:34:20;;;;;;;17.45;7.25;;;7.00;50.20;;;;;;2375262;52;21312;-70
2023/03/05 04:36:46;;;;;;;14.38;7.05;;;7.00;50.10;;;;;;2371563;53;20942;-70
2023/03/05 04:39:12;;;;;;;19.35;7.60;;;7.00;50.10;;;;;;2553660;52;20946;-69
2023/03/05 04:41:41;;;;;;;16.37;7.43;;;7.00;50.10;;;;;;2570456;52;21028;-70
2023/03/05 04:44:07;;;;;;;16.55;6.85;;;7.00;50.20;;;;;;2347994;54;20897;-70
2023/03/05 04:46:34;;;;;;;15.45;6.65;;;7.00;50.10;;;;;;2389208;52;21408;-70
2023/03/05 04:49:00;;;;;;;16.85;6.87;;;7.00;50.20;;;;;;2458291;52;20934;-70
2023/03/05 04:51:26;;;;;;;21.17;9.10;;;7.00;50.20;;;;;;2368476;53;21040;-70
2023/03/05 04:53:52;;;;;;;24.92;10.52;;;7.00;50.30;;;;;;2365598;53;20967;-70
2023/03/05 04:56:19;;;;;;;19.62;8.45;;;7.00;50.40;;;;;;2369546;53;20915;-70
2023/03/05 04:58:45;;;;;;;23.02;10.05;;;7.00;50.40;;;;;;2363717;53;21506;-70
2023/03/05 05:01:11;;;;;;;20.48;9.43;;;7.00;50.40;;;;;;2371852;53;21068;-70
2023/03/05 05:03:37;;;;;;;23.40;10.35;;;7.00;50.50;;;;;;2368929;53;20930;-69
2023/03/05 05:06:04;;;;;;;22.92;9.98;;;7.00;50.50;;;;;;2369933;53;21265;-69
2023/03/05 05:08:30;;;;;;;21.90;10.68;;;7.00;50.50;;;;;;2451562;52;21036;-70
2023/03/05 05:11:01;;;;;;;24.15;10.77;;;7.00;50.50;;;;;;2367123;53;20941;-69
2023/03/05 05:13:27;;;;;;;27.08;11.07;;;7.00;50.50;;;;;;2408740;53;20934;-70
2023/03/05 05:15:53;;;;;;;27.37;11.02;;;7.00;50.50;;;;;;2369151;53;21749;-70
2023/03/05 05:18:20;;;;;;;29.75;12.82;;;7.00;50.50;;;;;;2369254;53;20978;-70
2023/03/05 05:20:46;;;;;;;28.87;12.52;;;7.00;50.50;;;;;;2369644;52;21253;-70
2023/03/05 05:23:12;;;;;;;25.08;11.25;;;7.00;50.60;;;;;;2481684;52;21019;-70
2023/03/05 05:25:39;;;;;;;25.12;10.48;;;7.00;50.60;;;;;;2369030;53;21508;-70
2023/03/05 05:28:05;;;;;;;25.73;10.60;;;7.00;50.60;;;;;;2362486;53;20984;-70
2023/03/05 05:30:31;;;;;;;25.80;11.10;;;7.00;50.60;;;;;;2369154;53;20971;-69
2023/03/05 05:32:57;;;;;;;20.83;9.07;;;7.00;50.60;;;;;;2369887;53;21309;-69
2023/03/05 05:35:24;;;;;;;18.08;8.50;;;7.00;50.60;;;;;;2422747;52;21017;-70
2023/03/05 05:37:50;;;;;;;17.65;7.72;;;7.00;50.60;;;;;;2365701;53;21351;-70
2023/03/05 05:40:16;;;;;;;17.02;7.90;;;7.00;50.50;;;;;;2367533;53;21420;-70
2023/03/05 05:42:43;;;;;;;17.83;7.78;;;7.00;50.50;;;;;;2368223;53;21348;-70
2023/03/05 05:45:10;;;;;;;16.37;7.68;;;7.00;50.50;;;;;;2369622;53;20906;-70
2023/03/05 05:47:36;;;;;;;16.65;7.20;;;7.00;50.50;;;;;;2391470;52;21497;-70
2023/03/05 05:50:03;;;;;;;17.58;7.65;;;7.00;50.50;;;;;;2406222;52;21739;-70
2023/03/05 05:52:29;;;;;;;18.25;8.02;;;7.00;50.50;;;;;;2621006;52;21493;-69
2023/03/05 05:54:56;;;;;;;16.55;7.35;;;7.00;50.50;;;;;;2368841;53;21476;-70
2023/03/05 05:57:22;;;;;;;20.05;7.75;;;7.00;50.60;;;;;;2375736;52;20973;-70
2023/03/05 05:59:48;;;;;;;18.42;7.07;;;7.00;50.60;;;;;;2610695;52;21360;-70
2023/03/05 06:02:14;;;;;;;16.10;7.62;;;7.00;50.60;;;;;;2371376;53;21438;-69
2023/03/05 06:04:41;;;;;;;17.98;7.37;;;7.00;50.60;;;;;;2416265;53;20922;-70
2023/03/05 06:07:07;;;;;;;13.82;6.70;;;7.00;50.60;;;;;;2370702;53;20950;-69
2023/03/05 06:09:34;;;;;;;16.10;6.70;;;7.00;50.60;;;;;;2360875;54;21754;-70
2023/03/05 06:12:01;;;;;;;13.85;6.25;;;7.00;50.60;;;;;;2369505;53;20898;-70
2023/03/05 06:14:29;;;;;;;16.27;6.75;;;7.00;50.60;;;;;;2365172;53;20917;-70
2023/03/05 06:16:56;;;;;;;20.08;8.30;;;7.00;50.60;;;;;;2577775;52;20967;-70
2023/03/05 06:19:22;;;;;;;17.58;7.78;;;7.00;50.60;;;;;;2370974;53;20978;-70
2023/03/05 06:21:48;;;;;;;18.67;7.47;;;7.00;50.60;;;;;;2582237;52;20945;-70
2023/03/05 06:24:15;;;;;;;16.27;7.20;;;7.00;50.60;;;;;;2430943;52;20922;-70
2023/03/05 06:26:41;;;;;;;18.60;7.87;;;7.00;50.60;;;;;;2369249;53;21029;-70
2023/03/05 06:29:07;;;;;;;16.00;7.32;;;7.00;50.60;;;;;;2368372;53;20994;-70
2023/03/05 06:31:34;;;;;;;21.92;9.38;;;7.10;50.70;;;;;;2369268;53;21010;-70
2023/03/05 06:34:04;;;;;;;29.50;12.88;;;7.00;50.60;;;;;;2370029;53;20918;-70
2023/03/05 06:36:30;;;;;;;27.67;11.30;;;7.00;50.60;;;;;;2368184;53;20929;-70
2023/03/05 06:38:56;;;;;;;20.83;9.05;;;7.00;50.70;;;;;;2368805;53;20919;-70
2023/03/05 06:41:25;;;;;;;22.15;9.38;;;7.00;50.70;;;;;;2368434;53;20933;-69
2023/03/05 06:43:51;;;;;;;23.25;9.07;;;7.00;50.70;;;;;;2367194;53;21304;-70
2023/03/05 06:46:31;;;;;;;20.30;8.65;;;7.00;50.70;;;;;;2616229;52;21057;-70
2023/03/05 06:48:59;;;;;;;19.48;8.65;;;7.00;50.80;;;;;;2369376;53;21667;-69
2023/03/05 06:51:30;;;;;;;18.87;9.00;;;7.00;50.80;;;;;;2404620;52;20977;-70
2023/03/05 06:53:58;;;;;;;19.37;8.80;;;7.00;50.70;;;;;;2371208;53;20978;-70
2023/03/05 06:56:25;;;;;;;18.45;8.27;;;7.00;50.70;;;;;;2368743;53;21041;-70
2023/03/05 06:58:51;;;;;;;16.92;7.90;;;7.00;50.70;;;;;;2382769;52;20994;-70
2023/03/05 07:01:18;;;;;;;17.67;7.82;;;7.00;50.70;;;;;;2438525;52;20955;-70
2023/03/05 07:03:47;;;;;;;18.55;8.00;;;7.00;50.70;;;;;;2340482;54;21049;-70
2023/03/05 07:06:14;;;;;;;18.45;8.25;;;7.00;50.70;;;;;;2333889;54;20966;-70
2023/03/05 07:08:40;;;;;;;15.88;7.12;;;7.00;50.70;;;;;;2342254;54;21466;-70
2023/03/05 07:11:11;;;;;;;18.92;7.95;;;7.00;50.70;;;;;;2333645;54;20950;-70
2023/03/05 07:13:37;;;;;;;16.45;7.37;;;7.10;50.80;;;;;;2342455;54;20991;-70
2023/03/05 07:16:07;;;;;;;19.62;8.40;;;7.10;50.80;;;;;;2332475;54;20938;-70
2023/03/05 07:18:33;;;;;;;17.45;8.13;;;7.00;50.70;;;;;;2340548;54;21070;-69
2023/03/05 07:21:06;;;;;;;19.33;8.02;;;7.00;50.70;;;;;;2340584;54;20955;-70
2023/03/05 07:23:32;;;;;;;;;;;7.00;50.70;;;;;;2344910;54;20978;-70
2023/03/05 07:26:02;;;;;;;16.00;6.75;;;7.00;50.80;;;;;;2340667;54;20118;-70
2023/03/05 07:28:28;;;;;;;16.73;7.22;;;7.00;50.60;;;;;;2394687;52;20930;-70
2023/03/05 07:30:59;;;;;;;17.87;7.47;;;7.00;50.60;;;;;;2451026;53;20952;-70
2023/03/05 07:33:25;;;;;;;16.80;7.62;;;7.00;50.60;;;;;;2340692;54;21112;-70
2023/03/05 07:35:51;;;;;;;17.85;8.02;;;7.00;50.60;;;;;;2342607;54;21034;-70
2023/03/05 07:38:18;;;;;;;17.85;7.62;;;7.00;50.70;;;;;;2414508;52;21026;-70
2023/03/05 07:40:44;;;;;;;24.27;9.80;;;7.00;50.70;;;;;;2498030;52;21034;-70
2023/03/05 07:43:10;;;;;;;21.23;9.48;;;7.00;50.80;;;;;;2340127;54;20950;-70
2023/03/05 07:45:40;;;;;;;22.45;10.63;;;7.00;50.90;;;;;;2336542;54;20945;-70
2023/03/05 07:48:06;;;;;;;30.20;15.57;;;7.00;50.90;;;;;;2339926;54;21487;-69
2023/03/05 07:50:33;;;;;;;24.87;11.90;;;7.00;50.90;;;;;;2343020;54;21387;-70
2023/03/05 07:52:59;;;;;;;21.60;9.95;;;7.10;51.00;;;;;;2340476;54;20927;-70
2023/03/05 07:55:25;;;;;;;19.85;10.45;;;7.10;51.00;;;;;;2341146;54;21001;-70
2023/03/05 07:57:52;;;;;;;18.80;9.10;;;7.10;51.00;;;;;;2340151;54;20955;-70
2023/03/05 08:00:18;;;;;;;19.02;8.48;;;7.10;51.00;;;;;;2338995;54;20940;-70
2023/03/05 08:02:45;;;;;;;18.37;8.75;;;7.10;51.10;;;;;;2336655;54;20950;-70
2023/03/05 08:05:11;;;;;;;21.60;10.20;;;7.10;51.10;;;;;;2340438;54;21029;-70
2023/03/05 08:07:37;;;;;;;22.73;11.02;;;7.20;51.10;;;;;;2335344;54;20939;-70
2023/03/05 08:10:07;;;;;;;23.83;10.40;;;7.20;51.20;;;;;;2342594;54;21069;-70
2023/03/05 08:12:33;;;;;;;25.08;11.50;;;7.20;51.20;;;;;;2349193;53;21276;-70
2023/03/05 08:15:00;;;;;;;25.15;11.52;;;7.20;51.20;;;;;;2342380;54;20926;-70
2023/03/05 08:17:26;;;;;;;20.95;10.80;;;7.30;51.30;;;;;;2340541;54;20941;-70
2023/03/05 08:19:56;;;;;;;22.00;10.35;;;7.30;51.30;;;;;;2342907;54;21422;-70
2023/03/05 08:22:22;;;;;;;22.40;8.68;;;7.30;51.30;;;;;;2333124;54;20911;-70
2023/03/05 08:24:50;;;;;;;22.20;9.45;;;7.40;51.40;;;;;;2339291;54;20967;-70
2023/03/05 08:27:16;;;;;;;20.98;9.55;;;7.40;51.40;;;;;;2401338;53;21090;-70
2023/03/05 08:29:43;;;;;;;18.77;9.32;;;7.40;51.40;;;;;;2492871;52;21494;-70
2023/03/05 08:32:09;;;;;;;51.95;19.48;;;7.50;51.40;;;;;;2334610;54;21450;-70
2023/03/05 08:34:35;;;;;;;39.45;15.80;;;7.50;51.40;;;;;;2414754;52;20927;-70
2023/03/05 08:37:01;;;;;;;32.50;12.98;;;7.50;51.40;;;;;;2334977;54;20957;-70
2023/03/05 08:39:29;;;;;;;34.35;15.60;;;7.50;51.40;;;;;;2342228;54;20939;-70
2023/03/05 08:41:55;;;;;;;32.35;16.50;;;7.60;51.40;;;;;;2340149;54;20974;-70
2023/03/05 08:44:21;;;;;;;26.95;13.45;;;7.60;51.30;;;;;;2340575;54;20946;-70
2023/03/05 08:46:47;;;;;;;23.27;11.50;;;7.60;51.30;;;;;;2342027;54;20937;-70
2023/03/05 08:49:14;;;;;;;21.25;10.38;;;7.60;51.30;;;;;;2340632;54;21376;-70
2023/03/05 08:51:40;;;;;;;20.58;9.07;;;7.70;51.40;;;;;;2422775;52;21093;-69
2023/03/05 08:54:07;;;;;;;22.35;9.77;;;7.70;51.30;;;;;;2340868;54;20926;-70
2023/03/05 08:56:34;;;;;;;22.67;10.07;;;7.70;51.30;;;;;;2342140;54;20998;-72
2023/03/05 08:59:00;;;;;;;20.35;8.93;;;7.70;51.20;;;;;;2352320;53;21018;-70
2023/03/05 09:01:27;;;;;;;17.98;8.43;;;7.80;51.30;;;;;;2525540;53;21028;-69
2023/03/05 09:03:53;;;;;;;21.17;8.18;;;7.80;51.30;;;;;;2380185;54;20973;-73
2023/03/05 09:06:19;;;;;;;22.83;9.55;;;7.80;51.30;;;;;;2340829;54;21393;-71
2023/03/05 09:08:45;;;;;;;21.00;9.35;;;7.80;51.30;;;;;;2335050;54;20978;-70
2023/03/05 09:11:12;;;;;;;19.35;8.95;;;7.90;51.40;;;;;;2342334;54;21471;-73
2023/03/05 09:13:38;;;;;;;51.65;23.15;;;7.90;51.40;;;;;;2340517;53;20953;-71
2023/03/05 09:16:12;;;;;;;30.20;15.50;;;7.90;51.40;;;;;;2344365;54;21009;-73
2023/03/05 09:18:39;;;;;;;26.98;13.45;;;7.90;51.40;;;;;;2340660;54;20959;-71
2023/03/05 09:21:06;;;;;;;24.23;11.88;;;8.00;51.40;;;;;;2342335;54;21471;-72
2023/03/05 09:23:32;;;;;;;21.55;10.55;;;8.00;51.40;;;;;;2440910;53;20963;-72
2023/03/05 09:25:58;;;;;;;19.60;9.35;;;8.00;51.40;;;;;;2552100;52;21527;-72
2023/03/05 09:28:25;;;;;;;19.85;8.15;;;8.10;51.50;;;;;;2335077;54;20934;-72
2023/03/05 09:30:51;;;;;;;20.95;10.05;;;8.10;51.50;;;;;;2340027;54;21025;-74
2023/03/05 09:33:18;;;;;;;21.10;9.32;;;8.10;51.50;;;;;;2407337;53;20961;-70
2023/03/05 09:35:44;;;;;;;22.23;9.48;;;8.20;51.60;;;;;;2422520;53;20982;-70
2023/03/05 09:38:10;;;;;;;23.00;9.43;;;8.20;51.50;;;;;;2389027;53;21520;-71
2023/03/05 09:40:54;;;;;;;19.95;8.45;;;8.30;51.60;;;;;;2490827;52;21746;-72
2023/03/05 09:45:48;;;;;;;21.75;10.43;;;8.30;51.60;;;;;;2334037;54;21409;-72
2023/03/05 09:48:48;;;;;;;15.70;7.57;;;8.40;51.60;;;;;;2337495;54;21024;-69
2023/03/05 09:51:20;;;;;;;18.83;8.60;;;8.50;51.40;;;;;;2343186;53;20930;-70
2023/03/05 09:53:49;;;;;;;16.98;8.02;;;8.50;51.40;;;;;;2336207;54;20912;-69
2023/03/05 09:56:24;;;;;;;22.33;9.43;;;8.50;51.40;;;;;;2426542;52;21026;-72
2023/03/05 10:01:34;;;;;;;22.15;10.60;;;8.60;51.40;;;;;;2297154;54;22981;-71
2023/03/05 10:04:11;;;;;;;22.35;10.40;;;8.70;51.30;;;;;;2498843;54;21998;-73
2023/03/05 10:07:04;;;;;;;21.98;10.45;;;8.70;51.20;;;;;;2287316;55;21792;-73
2023/03/05 10:10:13;;;;;;;23.40;10.20;;;8.70;51.20;;;;;;2344346;55;20966;-71
2023/03/05 10:12:42;;;;;;;22.33;10.45;;;8.80;51.20;;;;;;2273997;55;21379;-71
2023/03/05 10:15:13;;;;;;;23.40;11.20;;;8.80;51.10;;;;;;2271862;56;21026;-72
2023/03/05 10:18:31;;;;;;;24.42;10.98;;;8.90;51.10;;;;;;2274627;56;20934;-69
2023/03/05 10:21:13;;;;;;;22.58;9.93;;;8.90;51.00;;;;;;2407033;55;20961;-72
2023/03/05 10:23:58;;;;;;;19.55;9.50;;;8.90;50.90;;;;;;2283772;55;21347;-70
2023/03/05 10:27:50;;;;;;;23.40;11.05;;;9.00;50.90;;;;;;2272613;55;21030;-72
2023/03/05 10:31:06;;;;;;;18.62;8.45;;;9.00;50.80;;;;;;2288884;55;20956;-73
2023/03/05 10:33:56;;;;;;;19.80;9.13;;;9.10;50.90;;;;;;2298971;54;21030;-72
2023/03/05 10:38:10;;;;;;;30.10;14.63;;;9.10;50.80;;;;;;2272863;56;20992;-73
2023/03/05 10:40:51;;;;;;;32.97;16.75;;;9.20;50.80;;;;;;2282234;55;20991;-69
2023/03/05 10:44:00;;;;;;;21.73;11.30;;;9.20;50.80;;;;;;2518662;55;21006;-74
2023/03/05 10:46:30;;;;;;;20.10;9.98;;;9.30;50.70;;;;;;2364691;55;20951;-73
2023/03/05 10:48:58;;;;;;;19.05;8.95;;;9.30;50.80;;;;;;2298456;55;21020;-71
2023/03/05 10:51:33;;;;;;;24.83;11.15;;;9.40;50.80;;;;;;2274368;55;21062;-71
2023/03/05 10:54:16;;;;;;;20.08;9.63;;;9.40;50.70;;;;;;2282840;54;20923;-71
2023/03/05 10:56:43;;;;;;;20.30;9.45;;;9.50;50.70;;;;;;2285748;54;20938;-72
2023/03/05 10:59:09;;;;;;;19.83;9.05;;;9.50;50.70;;;;;;2297198;55;21025;-70
2023/03/05 11:01:39;;;;;;;20.60;9.07;;;9.60;50.70;;;;;;2292881;55;21042;-70
2023/03/05 11:04:07;;;;;;;21.08;9.50;;;9.60;50.60;;;;;;2328940;54;21025;-73
2023/03/05 11:06:41;;;;;;;31.05;13.73;;;9.70;50.70;;;;;;2293807;55;20950;-69
2023/03/05 11:09:25;;;;;;;24.95;11.40;;;9.70;50.50;;;;;;2295850;55;20957;-73
2023/03/05 11:12:12;;;;;;;25.02;10.52;;;9.80;50.50;;;;;;2290864;55;20950;-72
2023/03/05 11:14:40;;;;;;;23.60;10.95;;;9.90;50.60;;;;;;2287162;55;22170;-73
2023/03/05 11:17:31;;;;;;;23.00;10.43;;;9.90;50.60;;;;;;2285296;56;20992;-71
2023/03/05 11:20:07;;;;;;;21.85;10.73;;;10.00;49.50;;;;;;2288664;55;20947;-70
2023/03/05 11:22:34;;;;;;;23.02;10.70;;;10.00;49.60;;;;;;2419664;54;20923;-70
2023/03/05 11:25:15;;;;;;;23.65;10.88;;;10.10;49.60;;;;;;2340434;55;21694;-71
2023/03/05 11:27:53;;;;;;;18.42;8.00;;;10.20;49.40;;;;;;2284412;55;20943;-73
2023/03/05 11:30:41;;;;;;;16.30;7.85;;;10.20;49.50;;;;;;2281277;55;20939;-71
2023/03/05 11:33:19;;;;;;;15.35;7.85;;;10.30;49.30;;;;;;2284967;55;20938;-73
2023/03/05 11:35:45;;;;;;;15.88;7.87;;;10.40;49.30;;;;;;2322419;54;20951;-74
2023/03/05 11:38:29;;;;;;;15.88;6.55;;;10.40;49.40;;;;;;2284781;55;21625;-72
2023/03/05 11:40:56;;;;;;;15.30;6.07;;;10.50;49.30;;;;;;2462385;54;21046;-69
2023/03/05 11:43:23;;;;;;;13.10;6.32;;;10.50;49.40;;;;;;2284872;56;21308;-71
2023/03/05 11:45:52;;;;;;;12.77;6.12;;;10.60;49.50;;;;;;2286380;55;20947;-73
2023/03/05 11:48:29;;;;;;;15.00;6.80;;;10.60;49.40;;;;;;2284158;55;21019;-72
2023/03/05 11:50:57;;;;;;;12.80;6.40;;;10.70;49.30;;;;;;2422378;55;20969;-71
2023/03/05 11:53:27;;;;;;;14.32;6.87;;;10.70;49.20;;;;;;2284473;56;20947;-74
2023/03/05 11:56:19;;;;;;;14.05;6.47;;;10.80;49.10;;;;;;2263335;56;20994;-70
2023/03/05 11:59:16;;;;;;;12.20;6.15;;;10.80;49.00;;;;;;2284113;55;21261;-72
2023/03/05 12:01:48;;;;;;;13.45;5.93;;;10.90;49.10;;;;;;2284637;56;21359;-71
2023/03/05 12:04:14;;;;;;;14.48;7.72;;;11.00;49.20;;;;;;2284814;56;20946;-70
2023/03/05 12:07:02;;;;;;;14.45;7.35;;;11.00;49.10;;;;;;2286377;55;25051;-71
2023/03/05 12:09:39;;;;;;;17.52;7.90;;;11.00;49.00;;;;;;2285558;55;21246;-72
2023/03/05 12:13:26;;;;;;;12.57;6.80;;;11.10;49.10;;;;;;2284138;55;21259;-73
2023/03/05 12:17:45;;;;;;;13.02;5.68;;;11.10;48.90;;;;;;2391615;55;20963;-73
2023/03/05 12:20:17;;;;;;;11.68;5.53;;;11.10;48.70;;;;;;2286745;55;21003;-70
2023/03/05 12:22:44;;;;;;;11.20;5.80;;;11.20;48.80;;;;;;2281172;55;20979;-72
2023/03/05 12:30:04;;;;;;;12.60;7.25;;;11.20;48.70;;;;;;2287500;55;20954;-70
2023/03/05 12:32:51;;;;;;;12.48;5.80;;;11.20;48.60;;;;;;2343711;55;21492;-73
2023/03/05 12:35:31;;;;;;;14.35;6.65;;;11.30;48.40;;;;;;2285791;55;20880;-72
2023/03/05 12:37:58;;;;;;;12.10;5.65;;;11.30;48.40;;;;;;2288731;55;20959;-72
2023/03/05 12:40:29;;;;;;;12.65;6.57;;;11.20;48.40;;;;;;2467980;54;21413;-73
2023/03/05 12:43:03;;;;;;;17.15;10.02;;;11.30;48.50;;;;;;2516364;54;20942;-72
2023/03/05 12:45:47;;;;;;;17.55;8.02;;;11.30;48.60;;;;;;2287701;55;21007;-73
2023/03/05 12:48:41;;;;;;;14.10;7.25;;;11.30;48.60;;;;;;2281845;55;21365;-71
2023/03/05 12:51:11;;;;;;;20.40;8.85;;;11.30;48.40;;;;;;2284296;55;20993;-73
2023/03/05 12:53:37;;;;;;;15.90;7.70;;;11.30;48.50;;;;;;2463080;54;21315;-73
2023/03/05 12:56:23;;;;;;;20.25;8.63;;;11.30;48.50;;;;;;2301605;55;21022;-72
2023/03/05 12:58:50;;;;;;;14.68;7.12;;;11.40;48.30;;;;;;2339558;55;21029;-73
2023/03/05 13:01:40;;;;;;;14.60;7.40;;;11.30;48.40;;;;;;2306093;56;21013;-73
2023/03/05 13:04:13;;;;;;;13.73;6.05;;;11.40;48.40;;;;;;2435431;54;20953;-71
2023/03/05 13:06:42;;;;;;;11.65;6.55;;;11.40;48.40;;;;;;2382364;54;20965;-72
2023/03/05 13:09:30;;;;;;;12.85;6.87;;;11.40;48.40;;;;;;2306927;56;20921;-73
2023/03/05 13:11:56;;;;;;;15.48;7.37;;;11.40;48.20;;;;;;2295489;55;20958;-71
2023/03/05 13:14:35;;;;;;;13.95;7.05;;;11.40;48.40;;;;;;2534335;54;21550;-72